Time;durP1;ratioP1;P1;durP2;ratioP2;P2;SDS_P1;SDS_P2;PMS_P1;PMS_P2;Temp;Humidity;BMP_temperature;BMP_pressure;BME280_temperature;BME280_humidity;BME280_pressure;Samples;Min_cycle;Max_cycle;Signal;HPM_P1;HPM_P2
2022/01/26 00:06:25;;;;;;;70.32;29.40;;;;;;;3.21;85.66;103370.06;4934203;29;20115;-77
2022/01/26 00:08:51;;;;;;;73.70;31.02;;;;;;;3.26;85.62;103363.22;4917246;29;20081;-77
2022/01/26 00:11:16;;;;;;;71.07;30.17;;;;;;;3.26;84.80;103375.41;4915054;29;20122;-77
2022/01/26 00:13:41;;;;;;;69.80;28.50;;;;;;;3.28;85.57;103371.13;4925901;29;20032;-78
2022/01/26 00:16:08;;;;;;;72.72;31.35;;;;;;;3.34;85.46;103365.13;4933751;29;20476;-77
2022/01/26 00:18:36;;;;;;;72.13;29.70;;;;;;;3.36;84.98;103358.22;4924871;29;20039;-76
2022/01/26 00:21:15;;;;;;;72.03;30.30;;;;;;;3.34;85.01;103362.50;4928329;29;20114;-77
2022/01/26 00:26:30;;;;;;;73.18;31.88;;;;;;;3.39;84.62;103346.09;4914818;29;20068;-77
2022/01/26 00:39:58;;;;;;;68.45;28.55;;;;;;;3.30;85.83;103338.00;4960904;28;20113;-76
2022/01/26 00:42:23;;;;;;;70.90;29.02;;;;;;;3.26;85.14;103336.13;4971515;28;20093;-77
2022/01/26 00:44:50;;;;;;;72.35;30.33;;;;;;;3.26;85.05;103334.41;4971245;28;20042;-78
2022/01/26 00:47:15;;;;;;;72.50;28.95;;;;;;;3.27;85.11;103338.81;4971735;28;20038;-79
2022/01/26 00:49:41;;;;;;;72.75;29.92;;;;;;;3.28;85.93;103348.41;4970628;28;20054;-77
2022/01/26 00:52:11;;;;;;;85.85;32.40;;;;;;;3.28;86.35;103335.31;4971651;28;20494;-77
2022/01/26 00:54:37;;;;;;;76.43;30.08;;;;;;;3.30;86.09;103327.53;4971107;28;20519;-77
2022/01/26 00:57:02;;;;;;;74.88;29.45;;;;;;;3.31;86.55;103331.91;4971712;28;20037;-77
2022/01/26 00:59:28;;;;;;;72.60;30.33;;;;;;;3.31;86.51;103328.41;4971810;28;20046;-77
2022/01/26 01:01:55;;;;;;;77.22;31.40;;;;;;;3.28;86.42;103319.59;4971166;28;20091;-77
2022/01/26 01:04:20;;;;;;;74.03;31.65;;;;;;;3.25;86.47;103313.44;4971533;28;20153;-77
2022/01/26 01:06:55;;;;;;;77.72;32.83;;;;;;;3.25;86.69;103322.16;4971211;28;20107;-77
2022/01/26 01:09:22;;;;;;;80.13;31.65;;;;;;;3.27;87.16;103320.47;4971391;28;20042;-77
2022/01/26 01:11:48;;;;;;;74.82;30.15;;;;;;;3.32;87.17;103319.72;5019293;28;20045;-77
2022/01/26 01:14:14;;;;;;;75.97;31.50;;;;;;;3.31;86.24;103300.47;5052486;28;20104;-77
2022/01/26 01:16:39;;;;;;;76.90;31.63;;;;;;;3.27;86.52;103301.25;5051522;28;20112;-77
2022/01/26 01:19:17;;;;;;;79.75;32.42;;;;;;;3.25;86.72;103289.88;5052432;28;20052;-77
2022/01/26 01:27:18;;;;;;;77.65;32.20;;;;;;;3.21;86.51;103298.47;5051407;28;20075;-77
2022/01/26 01:29:55;;;;;;;78.57;32.25;;;;;;;3.20;86.46;103297.59;5052212;28;20122;-77
2022/01/26 01:32:29;;;;;;;81.43;33.15;;;;;;;3.23;85.94;103281.06;5051595;28;20029;-77
2022/01/26 01:34:55;;;;;;;78.35;31.00;;;;;;;3.24;85.90;103277.63;5052011;28;20443;-77
2022/01/26 01:37:20;;;;;;;80.25;32.22;;;;;;;3.21;86.52;103280.13;5051801;28;20120;-77
2022/01/26 01:39:45;;;;;;;76.40;31.52;;;;;;;3.22;86.59;103290.69;5052121;28;20041;-77
2022/01/26 01:42:11;;;;;;;79.25;32.28;;;;;;;3.21;86.32;103286.28;5051674;28;20033;-77
2022/01/26 01:44:37;;;;;;;77.20;31.92;;;;;;;3.19;86.97;103285.34;5051628;28;20142;-77
2022/01/26 01:47:05;;;;;;;76.22;31.60;;;;;;;3.19;86.65;103279.22;5051522;28;20032;-76
2022/01/26 01:49:30;;;;;;;75.65;32.10;;;;;;;3.17;86.23;103270.44;5051966;28;20041;-77
2022/01/26 01:52:00;;;;;;;73.43;30.88;;;;;;;3.19;85.88;103267.00;5035859;28;20045;-77
2022/01/26 01:54:26;;;;;;;76.43;30.75;;;;;;;3.16;86.16;103266.94;5041546;28;20036;-77
2022/01/26 01:56:57;;;;;;;71.53;29.85;;;;;;;3.18;86.08;103261.75;5051319;28;20381;-77
2022/01/26 01:59:32;;;;;;;76.90;30.70;;;;;;;3.18;85.91;103254.75;5051393;28;20025;-77
2022/01/26 02:01:59;;;;;;;73.32;30.92;;;;;;;3.18;85.74;103254.75;5055728;28;20385;-77
2022/01/26 02:04:24;;;;;;;75.45;29.88;;;;;;;3.18;85.57;103256.50;5055430;28;20071;-77
2022/01/26 02:06:50;;;;;;;72.22;30.33;;;;;;;3.18;86.27;103249.53;5042793;28;20026;-77
2022/01/26 02:09:15;;;;;;;76.97;30.80;;;;;;;3.18;86.28;103259.13;5052316;28;20029;-76
2022/01/26 02:11:53;;;;;;;82.53;32.13;;;;;;;3.18;85.94;103257.38;5054919;28;20132;-77
2022/01/26 02:14:28;;;;;;;80.78;31.75;;;;;;;3.20;85.87;103260.94;5055494;28;20036;-77
2022/01/26 02:52:25;;;;;;;78.65;30.27;;;;;;;3.28;87.74;103242.78;4954374;29;20047;-77
2022/01/26 02:55:09;;;;;;;82.15;30.58;;;;;;;3.18;87.32;103238.19;4953809;29;20077;-77
2022/01/26 02:58:20;;;;;;;80.03;30.25;;;;;;;3.09;88.47;103229.22;4989484;28;20057;-78
2022/01/26 03:00:28;;;;;;;80.85;29.63;;;;;;;3.05;88.35;103221.28;4990522;28;20041;-77
2022/01/26 03:03:01;;;;;;;81.75;30.42;;;;;;;2.97;89.33;103221.09;4993055;28;20034;-76
2022/01/26 03:05:33;;;;;;;81.00;28.55;;;;;;;2.98;89.71;103224.59;4973670;28;20065;-77
2022/01/26 03:08:03;;;;;;;87.10;31.63;;;;;;;3.02;89.09;103210.72;5012403;28;20029;-77
2022/01/26 03:13:03;;;;;;;86.63;32.35;;;;;;;3.03;89.67;103197.69;5051799;28;20072;-77
2022/01/26 03:15:37;;;;;;;81.78;30.85;;;;;;;3.02;89.48;103181.91;5053830;28;20389;-76
2022/01/26 03:20:48;;;;;;;82.03;30.48;;;;;;;3.01;89.63;103180.19;5053661;28;20028;-77
2022/01/26 03:33:55;;;;;;;81.70;31.17;;;;;;;3.04;90.36;103214.28;5053937;28;20106;-77
2022/01/26 03:36:21;;;;;;;79.78;30.80;;;;;;;3.01;90.12;103191.53;5053707;28;20295;-78
2022/01/26 03:38:57;;;;;;;85.13;30.92;;;;;;;3.02;90.01;103192.41;5052540;28;20532;-77
2022/01/26 03:41:35;;;;;;;84.38;31.45;;;;;;;2.99;90.57;103181.88;5053442;28;20413;-76
2022/01/26 03:44:00;;;;;;;84.10;31.52;;;;;;;2.98;90.23;103182.72;5033538;28;20370;-77
2022/01/26 03:46:26;;;;;;;83.13;31.75;;;;;;;2.95;91.19;103186.13;5033637;28;20032;-79
2022/01/26 03:48:52;;;;;;;82.38;30.38;;;;;;;2.98;91.54;103188.84;5049105;28;20051;-77
2022/01/26 03:51:18;;;;;;;85.30;31.77;;;;;;;2.99;91.70;103189.72;5053206;28;20083;-77
2022/01/26 03:53:43;;;;;;;81.53;31.63;;;;;;;3.01;91.44;103207.22;5053015;28;20458;-77
2022/01/26 03:56:08;;;;;;;87.65;31.17;;;;;;;3.07;91.77;103223.09;5053274;28;20021;-77
2022/01/26 03:58:34;;;;;;;84.82;30.70;;;;;;;3.09;91.52;103234.47;5052892;28;20033;-76
2022/01/26 04:00:59;;;;;;;83.05;31.35;;;;;;;3.15;91.79;103231.13;5053322;28;20068;-77
2022/01/26 04:03:25;;;;;;;88.85;32.97;;;;;;;3.18;91.24;103228.56;5052902;28;20094;-77
2022/01/26 04:05:50;;;;;;;86.30;32.25;;;;;;;3.18;91.54;103235.56;5053083;28;20036;-77
2022/01/26 04:08:22;;;;;;;85.63;30.90;;;;;;;3.19;91.73;103232.97;5053062;28;20025;-77
2022/01/26 04:13:30;;;;;;;89.00;31.40;;;;;;;3.19;91.49;103238.22;5053069;28;20511;-76
2022/01/26 04:15:55;;;;;;;84.78;31.20;;;;;;;3.21;91.89;103236.53;5052760;28;20060;-77
2022/01/26 04:18:28;;;;;;;93.15;31.63;;;;;;;3.18;91.72;103256.50;5034948;28;20044;-77
2022/01/26 04:20:56;;;;;;;;;;;;;;;3.24;92.45;103259.28;5053425;28;20021;-76
2022/01/26 04:25:49;;;;;;;88.00;31.85;;;;;;;3.23;92.87;103253.16;5053101;28;20031;-76
2022/01/26 04:28:24;;;;;;;90.43;34.22;;;;;;;3.19;92.70;103237.34;5052980;28;20025;-77
2022/01/26 04:30:50;;;;;;;86.05;32.63;;;;;;;3.18;93.09;103206.75;5052336;28;20017;-77
2022/01/26 04:33:16;;;;;;;92.55;33.20;;;;;;;3.15;93.02;103211.94;5052374;28;20366;-77
2022/01/26 04:35:44;;;;;;;91.40;32.92;;;;;;;3.11;94.21;103206.59;5052658;28;20071;-77
2022/01/26 04:40:53;;;;;;;95.75;34.15;;;;;;;3.12;95.34;103176.09;5052979;28;20090;-76
2022/01/26 04:43:24;;;;;;;92.68;31.85;;;;;;;3.11;95.31;103180.41;5052676;28;20074;-76
2022/01/26 04:45:49;;;;;;;87.35;32.08;;;;;;;3.18;96.40;103193.66;5051650;28;20033;-77
2022/01/26 04:48:14;;;;;;;92.63;31.98;;;;;;;3.18;96.19;103204.13;5051940;28;20451;-77
2022/01/26 04:50:40;;;;;;;92.35;31.83;;;;;;;3.24;96.44;103209.53;5052573;28;20378;-77
2022/01/26 04:53:05;;;;;;;89.63;30.83;;;;;;;3.29;97.25;103189.56;5052356;28;20021;-77
2022/01/26 04:55:30;;;;;;;82.93;31.08;;;;;;;3.38;97.45;103194.16;5052113;28;20469;-76
2022/01/26 04:57:56;;;;;;;85.22;30.08;;;;;;;3.41;97.50;103207.31;5052390;28;20029;-77
2022/01/26 05:00:21;;;;;;;90.80;32.05;;;;;;;3.40;97.01;103197.66;5051930;28;20033;-77
2022/01/26 05:02:46;;;;;;;85.72;29.75;;;;;;;3.42;97.05;103202.09;5052385;28;20049;-77
2022/01/26 05:05:12;;;;;;;84.18;30.20;;;;;;;3.45;97.43;103196.03;5052026;28;20469;-76
2022/01/26 05:07:37;;;;;;;79.90;30.33;;;;;;;3.46;97.41;103187.34;5052131;28;20025;-76
2022/01/26 05:10:04;;;;;;;75.85;27.95;;;;;;;3.49;97.19;103197.00;5052313;28;20064;-77
2022/01/26 05:12:29;;;;;;;74.13;28.80;;;;;;;3.52;97.25;103181.38;5052413;28;20032;-77
2022/01/26 05:14:54;;;;;;;75.60;27.83;;;;;;;3.56;97.08;103172.72;5052375;28;20025;-77
2022/01/26 05:17:22;;;;;;;55.35;22.80;;;;;;;3.58;96.29;103171.91;5033257;28;20029;-76
2022/01/26 05:19:48;;;;;;;57.63;23.33;;;;;;;3.58;95.48;103179.75;5051866;28;20174;-77
2022/01/26 05:22:13;;;;;;;50.85;21.35;;;;;;;3.59;94.25;103180.63;5052009;28;20035;-76
2022/01/26 05:24:39;;;;;;;53.05;22.67;;;;;;;3.50;94.00;103191.78;5052362;28;20021;-77
2022/01/26 05:27:05;;;;;;;54.35;22.67;;;;;;;3.46;94.96;103184.72;5051922;28;20060;-78
2022/01/26 05:29:30;;;;;;;51.38;21.13;;;;;;;3.48;93.67;103169.94;5052288;28;20060;-77
2022/01/26 05:31:55;;;;;;;49.97;22.75;;;;;;;3.40;93.07;103175.00;5051660;28;20112;-77
2022/01/26 05:34:21;;;;;;;50.08;21.17;;;;;;;3.32;92.84;103171.31;5052027;28;20100;-77
2022/01/26 05:36:46;;;;;;;51.30;21.60;;;;;;;3.30;92.53;103166.88;5055205;28;20075;-76
2022/01/26 05:39:11;;;;;;;48.05;20.25;;;;;;;3.30;92.18;103169.50;5055686;28;20032;-77
2022/01/26 05:41:38;;;;;;;52.30;21.02;;;;;;;3.27;91.96;103181.69;5055575;28;20044;-76
2022/01/26 05:44:04;;;;;;;56.25;23.67;;;;;;;3.24;92.47;103185.97;5055676;28;20554;-76
2022/01/26 05:46:37;;;;;;;53.40;21.30;;;;;;;3.19;92.44;103182.34;5055977;28;20068;-76
2022/01/26 05:49:03;;;;;;;53.83;21.08;;;;;;;3.21;92.85;103194.63;5055106;28;20569;-76
2022/01/26 05:51:31;;;;;;;50.38;22.30;;;;;;;3.16;92.60;103198.88;5055681;28;20137;-76
2022/01/26 05:53:57;;;;;;;54.85;22.63;;;;;;;3.18;92.67;103212.88;5055025;28;20071;-76
2022/01/26 05:56:22;;;;;;;55.40;24.08;;;;;;;3.20;93.04;103205.94;5055232;28;20029;-76
2022/01/26 05:58:48;;;;;;;53.63;22.77;;;;;;;3.19;92.85;103219.00;5053765;28;20033;-76
2022/01/26 06:01:14;;;;;;;60.05;25.17;;;;;;;3.18;92.49;103230.31;5035462;28;20393;-77
2022/01/26 06:03:39;;;;;;;55.50;22.95;;;;;;;3.13;92.45;103227.56;5041352;28;20024;-77
2022/01/26 06:06:05;;;;;;;49.72;22.05;;;;;;;3.15;92.41;103220.66;5038210;28;20419;-77
2022/01/26 06:08:31;;;;;;;54.40;23.55;;;;;;;3.09;92.63;103213.53;5055025;28;20032;-77
2022/01/26 06:10:57;;;;;;;58.00;24.10;;;;;;;3.20;92.70;103210.31;5055251;28;20432;-76
2022/01/26 06:13:23;;;;;;;60.58;23.98;;;;;;;3.16;92.28;103206.72;5054801;28;20369;-76
2022/01/26 06:15:49;;;;;;;55.50;22.80;;;;;;;3.18;92.05;103193.66;5055216;28;20079;-76
2022/01/26 06:18:14;;;;;;;53.15;22.50;;;;;;;3.16;91.44;103183.16;5054794;28;20028;-77
2022/01/26 06:20:39;;;;;;;56.83;22.67;;;;;;;3.15;91.11;103183.13;5054677;28;20029;-76
2022/01/26 06:23:05;;;;;;;52.35;22.42;;;;;;;3.11;91.85;103174.31;5055183;28;20086;-78
2022/01/26 06:25:30;;;;;;;56.10;23.92;;;;;;;3.15;91.22;103180.50;5054798;28;20028;-76
2022/01/26 06:27:59;;;;;;;55.72;24.20;;;;;;;3.14;91.61;103182.22;5054974;28;20384;-77
2022/01/26 06:30:25;;;;;;;55.28;24.02;;;;;;;3.14;92.04;103177.00;5054880;28;20029;-77
2022/01/26 06:32:50;;;;;;;56.17;23.58;;;;;;;3.13;91.99;103182.19;5054677;28;20052;-76
2022/01/26 06:35:16;;;;;;;60.67;24.00;;;;;;;3.10;91.53;103177.78;5054334;28;20029;-76
2022/01/26 06:37:43;;;;;;;53.65;22.48;;;;;;;3.14;91.98;103179.63;5045298;28;20025;-76
2022/01/26 06:40:09;;;;;;;60.92;25.48;;;;;;;3.09;92.40;103178.63;5045710;28;20028;-76
2022/01/26 06:42:48;;;;;;;60.22;26.13;;;;;;;3.09;92.12;103179.50;5055034;28;20389;-76
2022/01/26 06:45:17;;;;;;;56.92;23.52;;;;;;;3.11;92.40;103177.81;5054153;28;20020;-75
2022/01/26 06:48:15;;;;;;;58.22;23.77;;;;;;;3.10;92.42;103191.75;5055848;28;20036;-79
2022/01/26 06:50:40;;;;;;;51.13;22.55;;;;;;;3.12;92.36;103212.75;5053768;28;20542;-78
2022/01/26 06:53:07;;;;;;;50.30;21.92;;;;;;;3.06;91.58;103213.47;5054343;28;20045;-77
2022/01/26 06:55:32;;;;;;;54.33;21.02;;;;;;;3.06;91.71;103210.84;5054365;28;20064;-77
2022/01/26 06:57:57;;;;;;;52.13;21.02;;;;;;;3.09;91.69;103213.53;5054377;28;20064;-78
2022/01/26 07:00:23;;;;;;;51.33;19.80;;;;;;;3.11;91.04;103195.25;5053707;28;20029;-77
2022/01/26 07:02:48;;;;;;;53.88;21.35;;;;;;;3.08;91.18;103195.16;5036220;28;20047;-78
2022/01/26 07:05:14;;;;;;;51.67;21.50;;;;;;;3.05;91.80;103201.22;5054090;28;20163;-76
2022/01/26 07:07:41;;;;;;;51.60;22.05;;;;;;;3.07;92.01;103194.28;5053593;28;20478;-77
2022/01/26 07:10:07;;;;;;;47.28;20.48;;;;;;;3.09;91.56;103208.28;5054062;28;20064;-77
2022/01/26 07:12:33;;;;;;;47.60;21.05;;;;;;;3.14;90.97;103213.66;5053585;28;20111;-77
2022/01/26 07:23:01;;;;;;;50.38;20.17;;;;;;;3.15;91.26;103231.13;5053743;28;20033;-77
2022/01/26 07:25:27;;;;;;;50.85;21.60;;;;;;;3.17;91.66;103232.06;5053998;28;20039;-77
2022/01/26 07:27:52;;;;;;;48.63;20.63;;;;;;;3.17;91.80;103225.94;5053552;28;20017;-79
2022/01/26 07:30:18;;;;;;;50.88;19.92;;;;;;;3.18;91.76;103243.41;5052958;28;20036;-75
2022/01/26 07:32:44;;;;;;;51.83;20.45;;;;;;;3.20;90.77;103240.00;5042157;28;20036;-75
2022/01/26 07:35:09;;;;;;;47.45;19.85;;;;;;;3.26;91.03;103241.84;5033665;28;20033;-75
2022/01/26 07:37:35;;;;;;;51.33;20.48;;;;;;;3.27;90.83;103235.78;5033886;28;20037;-75
2022/01/26 07:40:10;;;;;;;51.85;20.65;;;;;;;3.28;91.06;103233.19;5043167;28;20492;-75
2022/01/26 07:42:36;;;;;;;51.08;20.27;;;;;;;3.36;90.42;103229.88;5044900;28;20033;-75
2022/01/26 07:45:04;;;;;;;48.58;20.92;;;;;;;3.34;90.78;103234.19;5053825;28;20029;-75
2022/01/26 07:47:31;;;;;;;46.10;20.17;;;;;;;3.37;90.50;103235.16;5053249;28;20021;-75
2022/01/26 07:49:58;;;;;;;51.42;21.77;;;;;;;3.34;90.47;103240.31;5052849;28;20515;-75
2022/01/26 07:52:25;;;;;;;46.88;19.98;;;;;;;3.34;90.62;103231.56;5052769;28;20052;-75
2022/01/26 07:54:52;;;;;;;43.53;18.42;;;;;;;3.40;90.81;103229.09;5053182;28;20128;-75
2022/01/26 07:57:22;;;;;;;48.33;20.42;;;;;;;3.39;90.74;103227.31;5053028;28;20469;-73
2022/01/26 07:59:47;;;;;;;44.47;19.63;;;;;;;3.38;90.84;103230.81;5052612;28;20025;-74
2022/01/26 08:02:12;;;;;;;46.67;19.63;;;;;;;3.37;91.19;103229.03;5044007;28;20775;-74
2022/01/26 08:04:38;;;;;;;52.33;19.60;;;;;;;3.35;91.40;103235.97;5040400;28;20029;-75
2022/01/26 08:07:03;;;;;;;50.58;19.63;;;;;;;3.37;91.68;103237.75;5039766;28;20014;-75
2022/01/26 08:09:29;;;;;;;49.70;19.85;;;;;;;3.40;91.52;103229.09;5033539;28;20100;-74
2022/01/26 08:11:54;;;;;;;49.05;19.67;;;;;;;3.48;91.13;103226.66;5038634;28;20178;-74
2022/01/26 08:14:20;;;;;;;43.25;18.55;;;;;;;3.52;91.24;103226.78;5042760;28;20481;-74
2022/01/26 08:16:45;;;;;;;36.70;16.52;;;;;;;3.53;91.52;103232.88;5052868;28;20025;-75
2022/01/26 08:19:13;;;;;;;41.17;17.70;;;;;;;3.55;91.20;103215.47;5053015;28;20025;-75
2022/01/26 08:21:38;;;;;;;41.45;15.95;;;;;;;3.55;91.31;103216.34;5052637;28;20024;-74
2022/01/26 08:24:12;;;;;;;36.97;15.73;;;;;;;3.54;92.04;103214.59;5051972;28;20066;-75
2022/01/26 08:26:42;;;;;;;41.28;16.05;;;;;;;3.53;92.11;103219.78;5051761;28;20390;-74
2022/01/26 08:29:14;;;;;;;39.25;16.30;;;;;;;3.55;92.21;103207.63;5051983;28;20033;-74
2022/01/26 08:31:40;;;;;;;37.60;16.67;;;;;;;3.55;92.54;103218.97;5052910;28;20115;-75
2022/01/26 08:34:05;;;;;;;40.25;16.77;;;;;;;3.51;93.15;103222.38;5052492;28;20068;-77
2022/01/26 08:36:30;;;;;;;40.45;16.52;;;;;;;3.51;93.37;103229.38;5053040;28;20056;-75
2022/01/26 08:38:56;;;;;;;46.00;19.10;;;;;;;3.48;93.37;103230.19;5052818;28;20104;-75
2022/01/26 08:41:24;;;;;;;41.85;17.00;;;;;;;3.51;93.80;103230.22;5038652;28;20033;-75
2022/01/26 08:43:50;;;;;;;50.53;18.52;;;;;;;3.51;94.21;103224.13;5047622;28;20037;-75
2022/01/26 08:46:18;;;;;;;45.78;18.17;;;;;;;3.54;93.90;103219.84;5052499;28;20485;-74
2022/01/26 08:48:43;;;;;;;45.88;17.80;;;;;;;3.58;93.72;103218.16;5052745;28;20072;-74
2022/01/26 08:51:08;;;;;;;42.97;17.48;;;;;;;3.58;94.15;103210.28;5033121;28;20539;-76
2022/01/26 08:53:34;;;;;;;46.33;19.60;;;;;;;3.64;94.03;103214.81;5038080;28;20116;-77
2022/01/26 08:55:59;;;;;;;45.70;17.20;;;;;;;3.70;93.73;103207.09;5035372;28;20025;-77
2022/01/26 08:58:24;;;;;;;40.40;17.60;;;;;;;3.68;93.36;103208.78;5052285;28;20021;-77
2022/01/26 09:00:50;;;;;;;58.90;18.80;;;;;;;3.74;93.23;103224.63;5052253;28;20024;-77
2022/01/26 09:03:15;;;;;;;50.88;20.45;;;;;;;3.75;93.81;103215.94;5039200;28;20116;-76
2022/01/26 09:05:41;;;;;;;41.97;17.38;;;;;;;3.79;92.77;103217.75;5050948;28;20415;-77
2022/01/26 09:08:06;;;;;;;36.92;16.17;;;;;;;3.84;91.55;103220.50;5052701;28;20041;-77
2022/01/26 09:10:33;;;;;;;35.08;16.10;;;;;;;3.86;91.08;103216.16;5047582;28;20025;-76
2022/01/26 09:12:59;;;;;;;35.17;15.18;;;;;;;3.90;90.44;103207.50;5038273;28;20041;-77
2022/01/26 09:15:28;;;;;;;31.08;15.63;;;;;;;3.94;90.31;103218.09;5032814;28;20347;-76
2022/01/26 09:18:00;;;;;;;41.42;17.05;;;;;;;3.91;91.04;103215.41;5049589;28;20075;-76
2022/01/26 09:20:25;;;;;;;41.13;17.15;;;;;;;3.98;90.47;103216.41;5034298;28;20087;-76
2022/01/26 09:22:51;;;;;;;41.65;17.02;;;;;;;4.08;90.61;103218.38;5052285;28;20101;-77
2022/01/26 09:25:16;;;;;;;36.78;15.73;;;;;;;4.10;89.68;103215.78;5047972;28;20036;-76
2022/01/26 09:27:42;;;;;;;35.53;15.60;;;;;;;4.13;89.51;103218.47;5050907;28;20029;-75
2022/01/26 09:30:08;;;;;;;38.55;16.33;;;;;;;4.17;89.40;103216.78;5033413;28;20026;-76
2022/01/26 09:32:33;;;;;;;36.45;16.55;;;;;;;4.21;89.44;103208.16;5049055;28;20373;-76
2022/01/26 09:34:59;;;;;;;31.58;14.80;;;;;;;4.26;88.42;103212.63;5051978;28;20029;-76
2022/01/26 09:37:24;;;;;;;33.30;14.90;;;;;;;4.31;88.30;103199.59;5051614;28;20074;-75
2022/01/26 09:39:49;;;;;;;39.50;16.67;;;;;;;4.35;88.09;103218.88;5051029;28;20425;-75
2022/01/26 09:42:16;;;;;;;34.10;16.67;;;;;;;4.40;88.23;103209.41;5050664;28;20044;-74
2022/01/26 09:44:43;;;;;;;34.15;16.85;;;;;;;4.41;88.48;103212.03;5051944;28;20160;-74
2022/01/26 09:47:09;;;;;;;34.53;16.02;;;;;;;4.44;87.62;103229.56;5032812;28;20033;-75
2022/01/26 09:49:36;;;;;;;31.55;15.20;;;;;;;4.46;87.91;103234.84;5050076;28;20401;-75
2022/01/26 09:52:13;;;;;;;32.28;15.98;;;;;;;4.47;87.79;103224.38;5051139;28;20203;-76
2022/01/26 09:54:38;;;;;;;33.10;14.90;;;;;;;4.55;86.91;103217.56;5037225;28;20026;-77
2022/01/26 09:57:04;;;;;;;28.48;14.20;;;;;;;4.59;87.14;103205.34;5048207;28;20052;-75
2022/01/26 09:59:31;;;;;;;32.67;15.57;;;;;;;4.63;86.68;103201.94;5051242;28;20524;-76
2022/01/26 10:01:58;;;;;;;31.75;14.70;;;;;;;4.66;86.92;103207.25;5051662;28;20389;-77
2022/01/26 10:04:35;;;;;;;36.65;15.73;;;;;;;4.67;86.88;103209.00;5042802;28;20025;-77
2022/01/26 10:07:43;;;;;;;32.35;15.52;;;;;;;4.70;86.66;103206.44;5051581;28;20033;-77
2022/01/26 10:15:37;;;;;;;38.05;15.70;;;;;;;4.76;87.27;103229.28;5041037;28;20052;-75
2022/01/26 10:18:05;;;;;;;31.60;15.50;;;;;;;4.80;86.47;103236.34;5041255;28;20492;-77
2022/01/26 10:20:56;;;;;;;31.70;15.35;;;;;;;4.81;87.15;103227.63;5046458;28;20022;-77
2022/01/26 10:23:28;;;;;;;31.67;15.65;;;;;;;4.88;87.55;103232.13;5046355;28;20021;-74
2022/01/26 10:26:07;;;;;;;40.58;15.85;;;;;;;4.90;87.27;103234.78;5053825;28;20526;-75
2022/01/26 10:28:59;;;;;;;30.45;14.88;;;;;;;4.99;86.62;103224.44;5045962;28;20128;-75
2022/01/26 10:31:25;;;;;;;30.50;15.30;;;;;;;5.04;86.48;103227.16;5046909;28;20021;-75
2022/01/26 10:34:13;;;;;;;30.60;14.85;;;;;;;5.04;87.10;103238.53;5054959;28;20033;-76
2022/01/26 10:36:42;;;;;;;32.13;14.25;;;;;;;5.11;86.34;103233.38;5035225;28;20033;-75
2022/01/26 10:39:23;;;;;;;27.15;14.18;;;;;;;5.17;86.34;103234.38;5052950;28;20025;-75
2022/01/26 10:41:52;;;;;;;32.92;13.65;;;;;;;5.28;85.03;103225.78;5052816;28;20037;-74
2022/01/26 10:44:30;;;;;;;29.55;14.05;;;;;;;5.31;84.97;103224.06;5054238;28;20061;-73
2022/01/26 10:46:59;;;;;;;27.33;13.60;;;;;;;5.35;84.54;103230.28;5034929;28;20084;-75
2022/01/26 10:52:33;;;;;;;27.27;12.82;;;;;;;5.44;84.26;103213.75;5052255;28;20033;-74
2022/01/26 10:54:58;;;;;;;33.42;12.55;;;;;;;5.51;84.42;103216.50;5054537;28;20495;-73
2022/01/26 10:57:25;;;;;;;28.95;12.93;;;;;;;5.56;83.61;103214.81;5043321;28;20105;-74
2022/01/26 10:59:51;;;;;;;28.75;13.05;;;;;;;5.62;83.99;103210.53;5053912;28;20029;-74
2022/01/26 11:02:26;;;;;;;26.63;12.52;;;;;;;5.66;83.05;103215.81;5052308;28;20025;-74
2022/01/26 11:04:51;;;;;;;25.13;12.63;;;;;;;5.68;83.83;103210.59;5053362;28;20045;-75
2022/01/26 11:07:17;;;;;;;26.35;13.23;;;;;;;5.72;83.26;103196.63;5037495;28;20508;-74
2022/01/26 11:09:45;;;;;;;32.33;12.55;;;;;;;5.74;83.38;103192.25;5040622;28;20025;-74
2022/01/26 11:12:12;;;;;;;27.10;12.38;;;;;;;5.72;82.96;103197.50;5053417;28;20021;-74
2022/01/26 11:14:49;;;;;;;25.48;12.38;;;;;;;5.79;83.50;103194.97;5053971;28;20029;-76
2022/01/26 11:17:29;;;;;;;29.98;11.52;;;;;;;5.83;82.59;103183.63;5053695;28;20445;-74
2022/01/26 11:19:57;;;;;;;24.42;11.77;;;;;;;5.87;82.69;103196.84;5053047;28;20112;-75
2022/01/26 11:22:30;;;;;;;25.48;12.18;;;;;;;5.86;83.48;103189.81;5046686;28;20039;-73
2022/01/26 11:25:08;;;;;;;26.15;11.73;;;;;;;5.87;83.08;103186.31;5052755;28;20043;-75
2022/01/26 11:27:34;;;;;;;27.08;13.38;;;;;;;5.90;83.01;103188.97;5053228;28;20029;-74
2022/01/26 11:30:01;;;;;;;23.95;11.45;;;;;;;5.97;82.16;103183.78;5053626;28;20033;-74
2022/01/26 11:32:34;;;;;;;27.83;12.23;;;;;;;5.94;82.81;103189.91;5051669;28;20048;-75
2022/01/26 11:35:04;;;;;;;25.05;11.45;;;;;;;5.97;83.06;103186.41;5048290;28;20107;-75
2022/01/26 11:37:40;;;;;;;27.38;12.95;;;;;;;6.02;82.67;103190.03;5052847;28;20128;-75
2022/01/26 11:45:31;;;;;;;25.02;11.75;;;;;;;6.14;82.12;103170.84;5052884;28;20032;-73
2022/01/26 11:48:20;;;;;;;22.17;10.80;;;;;;;6.19;81.75;103163.91;5043523;28;20079;-74
2022/01/26 11:50:57;;;;;;;26.33;12.02;;;;;;;6.26;82.12;103163.13;5052391;28;20045;-74
2022/01/26 11:53:25;;;;;;;21.58;10.65;;;;;;;6.32;81.39;103178.97;5052418;28;20033;-73
2022/01/26 11:55:57;;;;;;;28.73;12.07;;;;;;;6.31;81.56;103171.06;5050459;28;20060;-75
2022/01/26 11:58:37;;;;;;;33.25;13.65;;;;;;;6.31;81.81;103168.44;5020658;28;20757;-72
2022/01/26 12:01:17;;;;;;;30.38;12.68;;;;;;;6.38;81.08;103165.88;5053251;28;20435;-72
2022/01/26 12:04:08;;;;;;;22.48;10.32;;;;;;;6.42;80.58;103160.63;5039540;28;20048;-73
2022/01/26 12:06:39;;;;;;;23.20;10.88;;;;;;;6.37;81.12;103166.75;5051525;28;20380;-73
2022/01/26 12:09:07;;;;;;;22.50;10.70;;;;;;;6.44;81.29;103179.97;5044223;28;20028;-72
2022/01/26 12:11:32;;;;;;;20.77;11.18;;;;;;;6.38;81.16;103181.66;5045652;28;20033;-72
2022/01/26 12:14:03;;;;;;;23.90;10.63;;;;;;;6.44;81.62;103182.59;5052471;28;20028;-75
2022/01/26 12:16:43;;;;;;;21.30;10.68;;;;;;;6.40;81.84;103181.69;5046496;28;20366;-74
2022/01/26 12:35:33;;;;;;;24.27;11.02;;;;;;;6.28;83.29;103142.97;5052539;28;20124;-73
2022/01/26 12:38:11;;;;;;;22.42;9.63;;;;;;;6.29;83.05;103141.22;5052433;28;20067;-74
2022/01/26 12:43:58;;;;;;;20.45;10.60;;;;;;;6.25;83.64;103149.94;5040137;28;20507;-74
2022/01/26 12:46:28;;;;;;;23.33;9.85;;;;;;;6.20;83.71;103144.63;5048359;28;20079;-75
2022/01/26 12:48:57;;;;;;;19.60;9.38;;;;;;;6.28;83.35;103137.72;5051198;28;20133;-75
2022/01/26 12:51:23;;;;;;;22.95;10.07;;;;;;;6.35;83.09;103149.16;5051710;28;20048;-73
2022/01/26 12:53:53;;;;;;;21.60;9.82;;;;;;;6.37;83.23;103143.06;5052359;28;20033;-74
2022/01/26 12:56:19;;;;;;;21.85;9.45;;;;;;;6.34;83.35;103144.78;5052857;28;20075;-74
2022/01/26 12:58:44;;;;;;;22.83;9.82;;;;;;;6.36;82.78;103135.16;5051439;28;20381;-73
2022/01/26 13:01:17;;;;;;;22.35;11.07;;;;;;;6.31;83.49;103140.34;5030715;28;20504;-73
2022/01/26 13:03:42;;;;;;;20.10;9.85;;;;;;;6.18;84.00;103133.22;5033875;28;20108;-74
2022/01/26 13:06:13;;;;;;;22.50;10.57;;;;;;;6.25;84.10;103129.75;5052278;28;20060;-74
2022/01/26 13:08:48;;;;;;;21.98;11.10;;;;;;;6.29;84.30;103128.06;5051728;28;20025;-74
2022/01/26 13:11:28;;;;;;;22.35;11.43;;;;;;;6.36;84.25;103111.47;5049827;28;20032;-72
2022/01/26 13:14:13;;;;;;;25.95;11.05;;;;;;;6.38;83.88;103099.19;5049431;28;20035;-73
2022/01/26 13:16:56;;;;;;;19.23;10.07;;;;;;;6.34;84.05;103115.81;5039596;28;20071;-73
2022/01/26 13:19:36;;;;;;;29.15;12.10;;;;;;;6.34;84.34;103123.72;5046038;28;20025;-72
2022/01/26 13:24:58;;;;;;;21.55;10.82;;;;;;;6.37;84.84;103102.72;5042098;28;20396;-74
2022/01/26 13:27:36;;;;;;;22.85;11.15;;;;;;;6.27;84.18;103116.66;5042113;28;20056;-73
2022/01/26 13:30:31;;;;;;;32.85;12.13;;;;;;;6.30;84.37;103119.28;5051533;28;20035;-73
2022/01/26 13:33:29;;;;;;;25.98;11.95;;;;;;;6.27;85.00;103109.63;5051145;28;20092;-73